sensor_id;sensor_type;location;lat;lon;timestamp;P1;durP1;ratioP1;P2;durP2;ratioP2
73107;SDS011;61559;50.476;15.588;2022-07-29T00:01:55;2.40;;;1.10;;
73107;SDS011;61559;50.476;15.588;2022-07-29T00:04:26;2.20;;;1.10;;
73107;SDS011;61559;50.476;15.588;2022-07-29T00:06:57;2.20;;;0.90;;
73107;SDS011;61559;50.476;15.588;2022-07-29T00:09:28;1.40;;;0.90;;
73107;SDS011;61559;50.476;15.588;2022-07-29T00:12:00;3.60;;;0.90;;
73107;SDS011;61559;50.476;15.588;2022-07-29T00:14:31;4.40;;;1.00;;
73107;SDS011;61559;50.476;15.588;2022-07-29T00:17:03;1.40;;;0.90;;
73107;SDS011;61559;50.476;15.588;2022-07-29T00:19:34;3.30;;;1.20;;
73107;SDS011;61559;50.476;15.588;2022-07-29T00:22:13;1.70;;;0.90;;
73107;SDS011;61559;50.476;15.588;2022-07-29T00:24:44;1.80;;;1.00;;
73107;SDS011;61559;50.476;15.588;2022-07-29T00:27:16;4.10;;;1.00;;
73107;SDS011;61559;50.476;15.588;2022-07-29T00:29:47;1.20;;;0.70;;
73107;SDS011;61559;50.476;15.588;2022-07-29T00:32:18;2.20;;;0.90;;
73107;SDS011;61559;50.476;15.588;2022-07-29T00:34:49;1.80;;;0.80;;
73107;SDS011;61559;50.476;15.588;2022-07-29T00:37:38;1.80;;;1.00;;
73107;SDS011;61559;50.476;15.588;2022-07-29T00:40:09;3.60;;;0.90;;
73107;SDS011;61559;50.476;15.588;2022-07-29T00:42:44;1.60;;;1.00;;
73107;SDS011;61559;50.476;15.588;2022-07-29T00:45:17;1.80;;;1.00;;
73107;SDS011;61559;50.476;15.588;2022-07-29T00:47:50;1.80;;;1.00;;
73107;SDS011;61559;50.476;15.588;2022-07-29T00:50:20;1.60;;;1.20;;
73107;SDS011;61559;50.476;15.588;2022-07-29T00:52:53;2.50;;;1.00;;
73107;SDS011;61559;50.476;15.588;2022-07-29T00:55:24;1.80;;;0.80;;
73107;SDS011;61559;50.476;15.588;2022-07-29T00:57:55;1.00;;;0.80;;
73107;SDS011;61559;50.476;15.588;2022-07-29T01:00:30;4.30;;;1.10;;
73107;SDS011;61559;50.476;15.588;2022-07-29T01:03:01;1.10;;;1.00;;
73107;SDS011;61559;50.476;15.588;2022-07-29T01:05:32;1.60;;;1.10;;
73107;SDS011;61559;50.476;15.588;2022-07-29T01:08:18;2.10;;;1.00;;
73107;SDS011;61559;50.476;15.588;2022-07-29T01:10:51;1.50;;;1.10;;
73107;SDS011;61559;50.476;15.588;2022-07-29T01:13:23;3.20;;;1.30;;
73107;SDS011;61559;50.476;15.588;2022-07-29T01:15:56;4.20;;;1.30;;
73107;SDS011;61559;50.476;15.588;2022-07-29T01:18:32;1.90;;;1.30;;
73107;SDS011;61559;50.476;15.588;2022-07-29T01:21:21;2.50;;;1.20;;
73107;SDS011;61559;50.476;15.588;2022-07-29T01:24:14;3.40;;;1.10;;
73107;SDS011;61559;50.476;15.588;2022-07-29T01:26:59;2.70;;;1.50;;
73107;SDS011;61559;50.476;15.588;2022-07-29T01:29:44;2.60;;;1.20;;
73107;SDS011;61559;50.476;15.588;2022-07-29T01:32:20;1.60;;;0.90;;
73107;SDS011;61559;50.476;15.588;2022-07-29T01:34:57;1.10;;;0.90;;
73107;SDS011;61559;50.476;15.588;2022-07-29T01:37:32;3.80;;;1.30;;
73107;SDS011;61559;50.476;15.588;2022-07-29T01:40:08;2.20;;;1.20;;
73107;SDS011;61559;50.476;15.588;2022-07-29T01:42:48;2.50;;;1.10;;
73107;SDS011;61559;50.476;15.588;2022-07-29T01:45:24;3.00;;;1.00;;
73107;SDS011;61559;50.476;15.588;2022-07-29T01:48:02;1.80;;;1.00;;
73107;SDS011;61559;50.476;15.588;2022-07-29T01:50:41;2.70;;;1.00;;
73107;SDS011;61559;50.476;15.588;2022-07-29T01:53:21;2.50;;;1.20;;
73107;SDS011;61559;50.476;15.588;2022-07-29T01:56:05;2.90;;;1.10;;
73107;SDS011;61559;50.476;15.588;2022-07-29T01:58:38;2.10;;;1.10;;
73107;SDS011;61559;50.476;15.588;2022-07-29T02:01:12;5.00;;;1.40;;
73107;SDS011;61559;50.476;15.588;2022-07-29T02:03:45;3.70;;;1.20;;
73107;SDS011;61559;50.476;15.588;2022-07-29T02:06:19;4.20;;;1.30;;
73107;SDS011;61559;50.476;15.588;2022-07-29T02:08:51;2.40;;;1.20;;
73107;SDS011;61559;50.476;15.588;2022-07-29T02:11:25;1.50;;;1.20;;
73107;SDS011;61559;50.476;15.588;2022-07-29T02:13:56;0.90;;;0.90;;
73107;SDS011;61559;50.476;15.588;2022-07-29T02:16:30;2.60;;;1.10;;
73107;SDS011;61559;50.476;15.588;2022-07-29T02:19:02;1.90;;;1.30;;
73107;SDS011;61559;50.476;15.588;2022-07-29T02:21:34;2.40;;;1.10;;
73107;SDS011;61559;50.476;15.588;2022-07-29T02:24:07;1.90;;;1.10;;
73107;SDS011;61559;50.476;15.588;2022-07-29T02:26:41;2.90;;;1.20;;
73107;SDS011;61559;50.476;15.588;2022-07-29T02:29:14;3.00;;;1.30;;
73107;SDS011;61559;50.476;15.588;2022-07-29T02:31:48;3.00;;;1.20;;
73107;SDS011;61559;50.476;15.588;2022-07-29T02:34:21;2.20;;;1.00;;
73107;SDS011;61559;50.476;15.588;2022-07-29T02:36:52;4.40;;;1.50;;
73107;SDS011;61559;50.476;15.588;2022-07-29T02:39:25;2.40;;;1.10;;
73107;SDS011;61559;50.476;15.588;2022-07-29T02:41:59;3.60;;;1.40;;
73107;SDS011;61559;50.476;15.588;2022-07-29T02:44:34;1.30;;;1.00;;
73107;SDS011;61559;50.476;15.588;2022-07-29T02:47:07;3.40;;;1.50;;
73107;SDS011;61559;50.476;15.588;2022-07-29T02:49:51;3.60;;;1.80;;
73107;SDS011;61559;50.476;15.588;2022-07-29T02:52:29;2.30;;;1.00;;
73107;SDS011;61559;50.476;15.588;2022-07-29T02:55:07;2.60;;;1.40;;
73107;SDS011;61559;50.476;15.588;2022-07-29T02:57:44;2.70;;;1.20;;
73107;SDS011;61559;50.476;15.588;2022-07-29T03:00:22;4.00;;;1.30;;
73107;SDS011;61559;50.476;15.588;2022-07-29T03:03:11;2.80;;;1.50;;
73107;SDS011;61559;50.476;15.588;2022-07-29T03:05:45;3.80;;;1.40;;
73107;SDS011;61559;50.476;15.588;2022-07-29T03:08:16;3.10;;;1.20;;
73107;SDS011;61559;50.476;15.588;2022-07-29T03:10:47;2.80;;;1.20;;
73107;SDS011;61559;50.476;15.588;2022-07-29T03:13:19;1.50;;;1.30;;
73107;SDS011;61559;50.476;15.588;2022-07-29T03:15:50;2.60;;;1.40;;
73107;SDS011;61559;50.476;15.588;2022-07-29T03:18:23;2.50;;;1.20;;
73107;SDS011;61559;50.476;15.588;2022-07-29T03:20:55;3.80;;;1.20;;
73107;SDS011;61559;50.476;15.588;2022-07-29T03:23:26;2.30;;;1.30;;
73107;SDS011;61559;50.476;15.588;2022-07-29T03:26:03;3.10;;;1.30;;
73107;SDS011;61559;50.476;15.588;2022-07-29T03:28:34;1.70;;;1.20;;
73107;SDS011;61559;50.476;15.588;2022-07-29T03:31:06;3.10;;;1.40;;
73107;SDS011;61559;50.476;15.588;2022-07-29T03:33:37;3.40;;;1.30;;
73107;SDS011;61559;50.476;15.588;2022-07-29T03:36:08;3.10;;;1.30;;
73107;SDS011;61559;50.476;15.588;2022-07-29T03:38:39;5.40;;;1.60;;
73107;SDS011;61559;50.476;15.588;2022-07-29T03:41:13;2.20;;;1.40;;
73107;SDS011;61559;50.476;15.588;2022-07-29T03:43:49;3.70;;;1.40;;
73107;SDS011;61559;50.476;15.588;2022-07-29T03:46:23;2.40;;;1.50;;
73107;SDS011;61559;50.476;15.588;2022-07-29T03:48:56;5.10;;;1.40;;
73107;SDS011;61559;50.476;15.588;2022-07-29T03:51:30;5.70;;;1.50;;
73107;SDS011;61559;50.476;15.588;2022-07-29T03:54:02;3.10;;;1.60;;
73107;SDS011;61559;50.476;15.588;2022-07-29T03:56:39;3.60;;;1.70;;
73107;SDS011;61559;50.476;15.588;2022-07-29T03:59:14;3.10;;;1.40;;
73107;SDS011;61559;50.476;15.588;2022-07-29T04:01:47;3.10;;;1.50;;
73107;SDS011;61559;50.476;15.588;2022-07-29T04:04:19;3.80;;;1.60;;
73107;SDS011;61559;50.476;15.588;2022-07-29T04:06:54;2.60;;;1.50;;
73107;SDS011;61559;50.476;15.588;2022-07-29T04:09:25;3.50;;;1.60;;
73107;SDS011;61559;50.476;15.588;2022-07-29T04:11:56;2.60;;;1.50;;
73107;SDS011;61559;50.476;15.588;2022-07-29T04:14:30;3.80;;;1.60;;
73107;SDS011;61559;50.476;15.588;2022-07-29T04:17:02;3.40;;;1.60;;
73107;SDS011;61559;50.476;15.588;2022-07-29T04:19:34;2.80;;;1.60;;
73107;SDS011;61559;50.476;15.588;2022-07-29T04:22:05;3.70;;;1.70;;
73107;SDS011;61559;50.476;15.588;2022-07-29T04:24:36;3.30;;;1.90;;
73107;SDS011;61559;50.476;15.588;2022-07-29T04:27:11;3.20;;;1.60;;
73107;SDS011;61559;50.476;15.588;2022-07-29T04:29:42;4.10;;;1.50;;
73107;SDS011;61559;50.476;15.588;2022-07-29T04:32:24;3.60;;;1.60;;
73107;SDS011;61559;50.476;15.588;2022-07-29T04:34:55;2.60;;;1.70;;
73107;SDS011;61559;50.476;15.588;2022-07-29T04:37:27;2.10;;;1.80;;
73107;SDS011;61559;50.476;15.588;2022-07-29T04:39:58;2.90;;;1.70;;
73107;SDS011;61559;50.476;15.588;2022-07-29T04:42:29;3.30;;;2.00;;
73107;SDS011;61559;50.476;15.588;2022-07-29T04:45:00;3.70;;;1.60;;
73107;SDS011;61559;50.476;15.588;2022-07-29T04:47:34;4.00;;;1.70;;
73107;SDS011;61559;50.476;15.588;2022-07-29T04:50:06;2.30;;;1.50;;
73107;SDS011;61559;50.476;15.588;2022-07-29T04:52:38;4.20;;;1.80;;
73107;SDS011;61559;50.476;15.588;2022-07-29T04:55:10;1.80;;;1.70;;
73107;SDS011;61559;50.476;15.588;2022-07-29T04:57:41;2.30;;;1.90;;
73107;SDS011;61559;50.476;15.588;2022-07-29T05:00:12;4.00;;;2.30;;
73107;SDS011;61559;50.476;15.588;2022-07-29T05:02:44;4.00;;;2.10;;
73107;SDS011;61559;50.476;15.588;2022-07-29T05:05:15;5.30;;;1.90;;
73107;SDS011;61559;50.476;15.588;2022-07-29T05:07:46;6.40;;;2.00;;
73107;SDS011;61559;50.476;15.588;2022-07-29T05:10:17;6.00;;;1.90;;
73107;SDS011;61559;50.476;15.588;2022-07-29T05:12:48;3.90;;;1.80;;
73107;SDS011;61559;50.476;15.588;2022-07-29T05:15:20;3.70;;;2.10;;
73107;SDS011;61559;50.476;15.588;2022-07-29T05:17:51;4.20;;;2.10;;
73107;SDS011;61559;50.476;15.588;2022-07-29T05:20:22;2.90;;;1.90;;
73107;SDS011;61559;50.476;15.588;2022-07-29T05:22:56;3.50;;;1.90;;
73107;SDS011;61559;50.476;15.588;2022-07-29T05:25:28;3.50;;;1.80;;
73107;SDS011;61559;50.476;15.588;2022-07-29T05:28:11;3.30;;;1.80;;
73107;SDS011;61559;50.476;15.588;2022-07-29T05:30:42;2.50;;;1.80;;
73107;SDS011;61559;50.476;15.588;2022-07-29T05:33:14;3.50;;;2.00;;
73107;SDS011;61559;50.476;15.588;2022-07-29T05:36:04;5.10;;;2.40;;
73107;SDS011;61559;50.476;15.588;2022-07-29T05:38:35;4.10;;;1.90;;
73107;SDS011;61559;50.476;15.588;2022-07-29T05:41:06;3.00;;;1.90;;
73107;SDS011;61559;50.476;15.588;2022-07-29T05:43:37;4.50;;;2.30;;
73107;SDS011;61559;50.476;15.588;2022-07-29T05:46:08;4.00;;;2.10;;
73107;SDS011;61559;50.476;15.588;2022-07-29T05:48:39;3.50;;;1.80;;
73107;SDS011;61559;50.476;15.588;2022-07-29T05:51:10;3.00;;;2.10;;
73107;SDS011;61559;50.476;15.588;2022-07-29T05:53:41;5.80;;;2.10;;
73107;SDS011;61559;50.476;15.588;2022-07-29T05:56:13;2.90;;;1.90;;
73107;SDS011;61559;50.476;15.588;2022-07-29T05:58:44;3.40;;;1.90;;
73107;SDS011;61559;50.476;15.588;2022-07-29T06:01:15;4.20;;;2.30;;
73107;SDS011;61559;50.476;15.588;2022-07-29T06:03:46;4.00;;;2.10;;
73107;SDS011;61559;50.476;15.588;2022-07-29T06:06:18;3.10;;;2.00;;
73107;SDS011;61559;50.476;15.588;2022-07-29T06:08:49;2.30;;;2.00;;
73107;SDS011;61559;50.476;15.588;2022-07-29T06:11:20;5.60;;;2.30;;
73107;SDS011;61559;50.476;15.588;2022-07-29T06:13:51;3.90;;;2.20;;
73107;SDS011;61559;50.476;15.588;2022-07-29T06:16:22;3.40;;;2.10;;
73107;SDS011;61559;50.476;15.588;2022-07-29T06:18:57;4.70;;;2.10;;
73107;SDS011;61559;50.476;15.588;2022-07-29T06:21:28;4.30;;;2.30;;
73107;SDS011;61559;50.476;15.588;2022-07-29T06:23:59;3.00;;;2.30;;
73107;SDS011;61559;50.476;15.588;2022-07-29T06:26:30;4.90;;;2.20;;
73107;SDS011;61559;50.476;15.588;2022-07-29T06:29:06;2.70;;;2.10;;
73107;SDS011;61559;50.476;15.588;2022-07-29T06:31:38;4.70;;;2.00;;
73107;SDS011;61559;50.476;15.588;2022-07-29T06:34:10;4.10;;;2.20;;
73107;SDS011;61559;50.476;15.588;2022-07-29T06:36:42;5.00;;;2.10;;
73107;SDS011;61559;50.476;15.588;2022-07-29T06:39:13;4.90;;;2.30;;
73107;SDS011;61559;50.476;15.588;2022-07-29T06:41:47;4.80;;;2.70;;
73107;SDS011;61559;50.476;15.588;2022-07-29T06:44:18;3.10;;;2.00;;
73107;SDS011;61559;50.476;15.588;2022-07-29T06:46:50;3.20;;;2.00;;
73107;SDS011;61559;50.476;15.588;2022-07-29T06:49:22;5.30;;;2.00;;
73107;SDS011;61559;50.476;15.588;2022-07-29T06:51:54;4.60;;;1.90;;
73107;SDS011;61559;50.476;15.588;2022-07-29T06:54:25;3.80;;;2.40;;
73107;SDS011;61559;50.476;15.588;2022-07-29T06:56:56;5.90;;;2.10;;
73107;SDS011;61559;50.476;15.588;2022-07-29T06:59:27;4.70;;;2.30;;
73107;SDS011;61559;50.476;15.588;2022-07-29T07:02:03;2.50;;;2.20;;
73107;SDS011;61559;50.476;15.588;2022-07-29T07:04:34;3.80;;;2.20;;
73107;SDS011;61559;50.476;15.588;2022-07-29T07:07:05;3.50;;;2.10;;
73107;SDS011;61559;50.476;15.588;2022-07-29T07:09:36;6.30;;;2.30;;
73107;SDS011;61559;50.476;15.588;2022-07-29T07:12:08;2.40;;;2.20;;
73107;SDS011;61559;50.476;15.588;2022-07-29T07:14:40;6.70;;;2.20;;
73107;SDS011;61559;50.476;15.588;2022-07-29T07:17:11;3.40;;;2.50;;
73107;SDS011;61559;50.476;15.588;2022-07-29T07:19:42;2.60;;;2.10;;
73107;SDS011;61559;50.476;15.588;2022-07-29T07:22:13;3.50;;;2.50;;
73107;SDS011;61559;50.476;15.588;2022-07-29T07:24:44;2.10;;;1.90;;
73107;SDS011;61559;50.476;15.588;2022-07-29T07:27:15;3.60;;;2.40;;
73107;SDS011;61559;50.476;15.588;2022-07-29T07:29:45;3.10;;;2.30;;
73107;SDS011;61559;50.476;15.588;2022-07-29T07:32:16;4.20;;;2.30;;
73107;SDS011;61559;50.476;15.588;2022-07-29T07:34:48;6.60;;;2.70;;
73107;SDS011;61559;50.476;15.588;2022-07-29T07:37:19;4.60;;;2.30;;
73107;SDS011;61559;50.476;15.588;2022-07-29T07:39:50;4.30;;;3.40;;
73107;SDS011;61559;50.476;15.588;2022-07-29T07:42:22;3.50;;;2.30;;
73107;SDS011;61559;50.476;15.588;2022-07-29T07:44:53;3.90;;;2.50;;
73107;SDS011;61559;50.476;15.588;2022-07-29T07:47:41;4.50;;;2.50;;
73107;SDS011;61559;50.476;15.588;2022-07-29T07:50:12;3.60;;;2.20;;
73107;SDS011;61559;50.476;15.588;2022-07-29T07:52:50;3.10;;;2.10;;
73107;SDS011;61559;50.476;15.588;2022-07-29T07:55:23;3.80;;;2.70;;
73107;SDS011;61559;50.476;15.588;2022-07-29T07:57:55;4.80;;;2.10;;
73107;SDS011;61559;50.476;15.588;2022-07-29T08:00:26;2.70;;;2.40;;
73107;SDS011;61559;50.476;15.588;2022-07-29T08:02:57;4.90;;;2.80;;
73107;SDS011;61559;50.476;15.588;2022-07-29T08:05:29;3.60;;;2.40;;
73107;SDS011;61559;50.476;15.588;2022-07-29T08:08:01;3.80;;;2.00;;
73107;SDS011;61559;50.476;15.588;2022-07-29T08:10:33;4.00;;;2.40;;
73107;SDS011;61559;50.476;15.588;2022-07-29T08:13:24;4.00;;;2.40;;
73107;SDS011;61559;50.476;15.588;2022-07-29T08:15:58;3.40;;;2.30;;
73107;SDS011;61559;50.476;15.588;2022-07-29T08:18:30;3.40;;;2.20;;
73107;SDS011;61559;50.476;15.588;2022-07-29T08:21:01;5.00;;;2.60;;
73107;SDS011;61559;50.476;15.588;2022-07-29T08:23:32;3.60;;;2.30;;
73107;SDS011;61559;50.476;15.588;2022-07-29T08:26:14;4.60;;;2.50;;
73107;SDS011;61559;50.476;15.588;2022-07-29T08:28:45;4.10;;;2.70;;
73107;SDS011;61559;50.476;15.588;2022-07-29T08:31:18;5.20;;;2.10;;
73107;SDS011;61559;50.476;15.588;2022-07-29T08:33:50;4.20;;;2.30;;
73107;SDS011;61559;50.476;15.588;2022-07-29T08:36:21;4.00;;;2.20;;
73107;SDS011;61559;50.476;15.588;2022-07-29T08:38:52;5.10;;;2.60;;
73107;SDS011;61559;50.476;15.588;2022-07-29T08:41:23;4.10;;;2.40;;
73107;SDS011;61559;50.476;15.588;2022-07-29T08:43:55;4.50;;;2.40;;
73107;SDS011;61559;50.476;15.588;2022-07-29T08:46:26;5.30;;;2.40;;
73107;SDS011;61559;50.476;15.588;2022-07-29T08:48:57;3.30;;;2.40;;
73107;SDS011;61559;50.476;15.588;2022-07-29T08:51:28;3.40;;;2.60;;
73107;SDS011;61559;50.476;15.588;2022-07-29T08:54:17;3.70;;;2.50;;
73107;SDS011;61559;50.476;15.588;2022-07-29T08:56:50;5.10;;;2.60;;
73107;SDS011;61559;50.476;15.588;2022-07-29T08:59:24;2.50;;;2.10;;
73107;SDS011;61559;50.476;15.588;2022-07-29T09:01:58;5.10;;;2.50;;
73107;SDS011;61559;50.476;15.588;2022-07-29T09:04:32;3.70;;;2.30;;
73107;SDS011;61559;50.476;15.588;2022-07-29T09:07:05;4.20;;;3.10;;
73107;SDS011;61559;50.476;15.588;2022-07-29T09:09:37;3.30;;;2.60;;
73107;SDS011;61559;50.476;15.588;2022-07-29T09:12:08;4.40;;;2.60;;
73107;SDS011;61559;50.476;15.588;2022-07-29T09:14:56;3.80;;;2.50;;
73107;SDS011;61559;50.476;15.588;2022-07-29T09:17:43;3.20;;;2.30;;
73107;SDS011;61559;50.476;15.588;2022-07-29T09:20:18;4.50;;;2.60;;
73107;SDS011;61559;50.476;15.588;2022-07-29T09:22:51;4.10;;;2.60;;
73107;SDS011;61559;50.476;15.588;2022-07-29T09:25:34;4.30;;;2.50;;
73107;SDS011;61559;50.476;15.588;2022-07-29T09:28:07;4.60;;;2.20;;
73107;SDS011;61559;50.476;15.588;2022-07-29T09:30:43;3.00;;;1.80;;
73107;SDS011;61559;50.476;15.588;2022-07-29T09:33:21;4.30;;;2.60;;
73107;SDS011;61559;50.476;15.588;2022-07-29T09:35:59;3.10;;;2.30;;
73107;SDS011;61559;50.476;15.588;2022-07-29T09:38:33;4.60;;;2.40;;
73107;SDS011;61559;50.476;15.588;2022-07-29T09:41:05;2.90;;;2.10;;
73107;SDS011;61559;50.476;15.588;2022-07-29T09:43:38;3.80;;;2.30;;
73107;SDS011;61559;50.476;15.588;2022-07-29T09:46:11;3.00;;;2.50;;
73107;SDS011;61559;50.476;15.588;2022-07-29T09:48:43;3.80;;;2.70;;
73107;SDS011;61559;50.476;15.588;2022-07-29T09:51:18;4.20;;;2.10;;
73107;SDS011;61559;50.476;15.588;2022-07-29T09:54:10;4.10;;;2.20;;
73107;SDS011;61559;50.476;15.588;2022-07-29T09:56:52;2.20;;;1.90;;
73107;SDS011;61559;50.476;15.588;2022-07-29T09:59:24;4.40;;;2.20;;
73107;SDS011;61559;50.476;15.588;2022-07-29T10:01:56;3.50;;;2.40;;
73107;SDS011;61559;50.476;15.588;2022-07-29T10:04:37;3.30;;;2.20;;
73107;SDS011;61559;50.476;15.588;2022-07-29T10:07:09;2.50;;;2.30;;
73107;SDS011;61559;50.476;15.588;2022-07-29T10:09:40;2.40;;;2.00;;
73107;SDS011;61559;50.476;15.588;2022-07-29T10:12:21;4.20;;;2.60;;
73107;SDS011;61559;50.476;15.588;2022-07-29T10:14:52;4.10;;;2.80;;
73107;SDS011;61559;50.476;15.588;2022-07-29T10:17:23;4.10;;;2.40;;
73107;SDS011;61559;50.476;15.588;2022-07-29T10:19:55;3.00;;;2.10;;
73107;SDS011;61559;50.476;15.588;2022-07-29T10:22:26;4.10;;;2.20;;
73107;SDS011;61559;50.476;15.588;2022-07-29T10:25:18;5.00;;;2.40;;
73107;SDS011;61559;50.476;15.588;2022-07-29T10:27:50;3.10;;;2.40;;
73107;SDS011;61559;50.476;15.588;2022-07-29T10:30:22;3.70;;;2.60;;
73107;SDS011;61559;50.476;15.588;2022-07-29T10:33:08;2.80;;;2.40;;
73107;SDS011;61559;50.476;15.588;2022-07-29T10:35:58;3.50;;;2.30;;
73107;SDS011;61559;50.476;15.588;2022-07-29T10:38:44;5.60;;;2.50;;
73107;SDS011;61559;50.476;15.588;2022-07-29T10:41:29;5.30;;;2.50;;
73107;SDS011;61559;50.476;15.588;2022-07-29T10:44:15;2.30;;;2.10;;
73107;SDS011;61559;50.476;15.588;2022-07-29T10:46:51;2.90;;;2.40;;
73107;SDS011;61559;50.476;15.588;2022-07-29T10:49:22;2.50;;;2.00;;
73107;SDS011;61559;50.476;15.588;2022-07-29T10:52:02;3.10;;;2.10;;
73107;SDS011;61559;50.476;15.588;2022-07-29T10:54:42;4.40;;;2.30;;
73107;SDS011;61559;50.476;15.588;2022-07-29T10:57:16;4.30;;;2.50;;
73107;SDS011;61559;50.476;15.588;2022-07-29T11:00:31;3.70;;;2.50;;
73107;SDS011;61559;50.476;15.588;2022-07-29T11:03:03;2.70;;;2.40;;
73107;SDS011;61559;50.476;15.588;2022-07-29T11:05:56;5.50;;;2.60;;
73107;SDS011;61559;50.476;15.588;2022-07-29T11:08:27;3.40;;;2.50;;
73107;SDS011;61559;50.476;15.588;2022-07-29T11:14:05;3.70;;;1.80;;
73107;SDS011;61559;50.476;15.588;2022-07-29T11:19:40;3.70;;;2.30;;
73107;SDS011;61559;50.476;15.588;2022-07-29T11:22:32;2.60;;;2.00;;
73107;SDS011;61559;50.476;15.588;2022-07-29T11:25:14;4.10;;;2.30;;
73107;SDS011;61559;50.476;15.588;2022-07-29T11:28:10;2.50;;;2.30;;
73107;SDS011;61559;50.476;15.588;2022-07-29T11:30:52;2.30;;;2.10;;
73107;SDS011;61559;50.476;15.588;2022-07-29T11:33:28;2.60;;;2.40;;
73107;SDS011;61559;50.476;15.588;2022-07-29T11:36:20;3.30;;;2.70;;
73107;SDS011;61559;50.476;15.588;2022-07-29T11:45:09;3.30;;;2.10;;
73107;SDS011;61559;50.476;15.588;2022-07-29T11:48:04;3.70;;;2.40;;
73107;SDS011;61559;50.476;15.588;2022-07-29T11:50:56;4.20;;;2.60;;
73107;SDS011;61559;50.476;15.588;2022-07-29T11:53:30;3.20;;;2.20;;
73107;SDS011;61559;50.476;15.588;2022-07-29T11:56:02;3.20;;;2.30;;
73107;SDS011;61559;50.476;15.588;2022-07-29T11:58:37;4.40;;;2.10;;
73107;SDS011;61559;50.476;15.588;2022-07-29T12:01:10;2.60;;;2.20;;
73107;SDS011;61559;50.476;15.588;2022-07-29T12:03:46;2.50;;;2.20;;
73107;SDS011;61559;50.476;15.588;2022-07-29T12:06:33;2.70;;;1.90;;
73107;SDS011;61559;50.476;15.588;2022-07-29T12:09:08;3.50;;;2.40;;
73107;SDS011;61559;50.476;15.588;2022-07-29T12:11:41;2.90;;;2.30;;
73107;SDS011;61559;50.476;15.588;2022-07-29T12:14:27;3.10;;;2.30;;
73107;SDS011;61559;50.476;15.588;2022-07-29T12:17:01;3.80;;;2.40;;
73107;SDS011;61559;50.476;15.588;2022-07-29T12:19:41;3.10;;;2.50;;
73107;SDS011;61559;50.476;15.588;2022-07-29T12:22:13;5.10;;;2.30;;
73107;SDS011;61559;50.476;15.588;2022-07-29T12:24:55;2.60;;;2.40;;
73107;SDS011;61559;50.476;15.588;2022-07-29T12:27:58;4.40;;;2.60;;
73107;SDS011;61559;50.476;15.588;2022-07-29T12:30:43;3.70;;;2.20;;
73107;SDS011;61559;50.476;15.588;2022-07-29T12:33:20;6.00;;;2.60;;
73107;SDS011;61559;50.476;15.588;2022-07-29T12:35:53;2.70;;;2.20;;
73107;SDS011;61559;50.476;15.588;2022-07-29T12:38:38;6.40;;;2.80;;
73107;SDS011;61559;50.476;15.588;2022-07-29T12:41:11;3.60;;;2.30;;
73107;SDS011;61559;50.476;15.588;2022-07-29T12:43:52;4.30;;;2.40;;
73107;SDS011;61559;50.476;15.588;2022-07-29T12:46:23;5.80;;;2.60;;
73107;SDS011;61559;50.476;15.588;2022-07-29T12:48:55;4.00;;;2.30;;
73107;SDS011;61559;50.476;15.588;2022-07-29T12:51:30;2.40;;;2.20;;
73107;SDS011;61559;50.476;15.588;2022-07-29T12:54:03;14.00;;;3.00;;
73107;SDS011;61559;50.476;15.588;2022-07-29T12:56:36;4.60;;;2.50;;
73107;SDS011;61559;50.476;15.588;2022-07-29T12:59:15;4.00;;;2.50;;
73107;SDS011;61559;50.476;15.588;2022-07-29T13:01:47;3.00;;;2.40;;
73107;SDS011;61559;50.476;15.588;2022-07-29T13:04:27;3.20;;;2.40;;
73107;SDS011;61559;50.476;15.588;2022-07-29T13:06:59;2.80;;;2.10;;
73107;SDS011;61559;50.476;15.588;2022-07-29T13:09:37;2.90;;;2.20;;
73107;SDS011;61559;50.476;15.588;2022-07-29T13:12:10;3.90;;;2.50;;
73107;SDS011;61559;50.476;15.588;2022-07-29T13:14:42;2.90;;;2.50;;
73107;SDS011;61559;50.476;15.588;2022-07-29T13:17:15;5.20;;;2.20;;
73107;SDS011;61559;50.476;15.588;2022-07-29T13:19:48;3.20;;;2.30;;
73107;SDS011;61559;50.476;15.588;2022-07-29T13:22:20;3.10;;;2.60;;
73107;SDS011;61559;50.476;15.588;2022-07-29T13:24:54;3.90;;;2.40;;
73107;SDS011;61559;50.476;15.588;2022-07-29T13:27:26;2.70;;;2.30;;
73107;SDS011;61559;50.476;15.588;2022-07-29T13:30:00;5.00;;;2.50;;
73107;SDS011;61559;50.476;15.588;2022-07-29T13:32:33;4.80;;;2.70;;
73107;SDS011;61559;50.476;15.588;2022-07-29T13:35:06;3.50;;;2.50;;
73107;SDS011;61559;50.476;15.588;2022-07-29T13:37:39;3.90;;;2.40;;
73107;SDS011;61559;50.476;15.588;2022-07-29T13:40:11;4.90;;;2.50;;
73107;SDS011;61559;50.476;15.588;2022-07-29T13:43:02;3.70;;;2.50;;
73107;SDS011;61559;50.476;15.588;2022-07-29T13:45:33;3.20;;;2.70;;
73107;SDS011;61559;50.476;15.588;2022-07-29T13:48:05;2.80;;;2.30;;
73107;SDS011;61559;50.476;15.588;2022-07-29T13:50:37;4.20;;;2.70;;
73107;SDS011;61559;50.476;15.588;2022-07-29T13:53:08;4.00;;;2.40;;
73107;SDS011;61559;50.476;15.588;2022-07-29T13:55:45;3.20;;;2.50;;
73107;SDS011;61559;50.476;15.588;2022-07-29T13:58:16;4.00;;;2.40;;
73107;SDS011;61559;50.476;15.588;2022-07-29T14:00:47;4.20;;;3.10;;
73107;SDS011;61559;50.476;15.588;2022-07-29T14:03:18;2.80;;;2.50;;
73107;SDS011;61559;50.476;15.588;2022-07-29T14:05:49;2.90;;;2.50;;
73107;SDS011;61559;50.476;15.588;2022-07-29T14:08:20;4.00;;;2.30;;
73107;SDS011;61559;50.476;15.588;2022-07-29T14:10:52;4.00;;;2.80;;
73107;SDS011;61559;50.476;15.588;2022-07-29T14:13:23;3.20;;;2.60;;
73107;SDS011;61559;50.476;15.588;2022-07-29T14:15:54;4.50;;;2.10;;
73107;SDS011;61559;50.476;15.588;2022-07-29T14:18:25;4.80;;;2.70;;
73107;SDS011;61559;50.476;15.588;2022-07-29T14:20:56;5.00;;;2.60;;
73107;SDS011;61559;50.476;15.588;2022-07-29T14:23:27;5.60;;;2.90;;
73107;SDS011;61559;50.476;15.588;2022-07-29T14:25:58;2.90;;;2.60;;
73107;SDS011;61559;50.476;15.588;2022-07-29T14:28:35;3.80;;;2.40;;
73107;SDS011;61559;50.476;15.588;2022-07-29T14:31:08;7.10;;;2.60;;
73107;SDS011;61559;50.476;15.588;2022-07-29T14:33:39;3.00;;;2.40;;
73107;SDS011;61559;50.476;15.588;2022-07-29T14:36:13;3.20;;;2.20;;
73107;SDS011;61559;50.476;15.588;2022-07-29T14:38:44;3.20;;;2.60;;
73107;SDS011;61559;50.476;15.588;2022-07-29T14:41:15;5.80;;;2.40;;
73107;SDS011;61559;50.476;15.588;2022-07-29T14:43:46;3.40;;;2.60;;
73107;SDS011;61559;50.476;15.588;2022-07-29T14:46:17;3.80;;;2.60;;
73107;SDS011;61559;50.476;15.588;2022-07-29T14:48:48;4.10;;;2.70;;
73107;SDS011;61559;50.476;15.588;2022-07-29T14:51:19;6.10;;;3.00;;
73107;SDS011;61559;50.476;15.588;2022-07-29T14:53:59;3.80;;;2.50;;
73107;SDS011;61559;50.476;15.588;2022-07-29T14:56:30;5.20;;;2.60;;
73107;SDS011;61559;50.476;15.588;2022-07-29T14:59:04;4.10;;;2.70;;
73107;SDS011;61559;50.476;15.588;2022-07-29T15:01:35;5.10;;;2.60;;
73107;SDS011;61559;50.476;15.588;2022-07-29T15:04:06;3.90;;;2.80;;
73107;SDS011;61559;50.476;15.588;2022-07-29T15:06:38;6.00;;;2.60;;
73107;SDS011;61559;50.476;15.588;2022-07-29T15:09:09;3.90;;;2.80;;
73107;SDS011;61559;50.476;15.588;2022-07-29T15:11:43;6.20;;;2.80;;
73107;SDS011;61559;50.476;15.588;2022-07-29T15:14:14;6.10;;;3.50;;
73107;SDS011;61559;50.476;15.588;2022-07-29T15:16:45;4.10;;;2.50;;
73107;SDS011;61559;50.476;15.588;2022-07-29T15:19:19;2.90;;;2.10;;
73107;SDS011;61559;50.476;15.588;2022-07-29T15:21:50;4.80;;;2.30;;
73107;SDS011;61559;50.476;15.588;2022-07-29T15:24:26;4.40;;;2.50;;
73107;SDS011;61559;50.476;15.588;2022-07-29T15:26:57;10.40;;;2.80;;
73107;SDS011;61559;50.476;15.588;2022-07-29T15:29:28;4.30;;;2.70;;